• Join FlightAware (Why Join?)
  • Login
  • US Flag 
06:04PM EDT


 

Airport Tracker/Info


-or-


 

Live Flight TrackerFlight Track Log ✈ DAL6036 ✈ 07-May-2013 ✈ KDTW - KGRR

Flight Track Log - Related Links

Times and Time Zones

All times are in EDT time to prevent confusion due to time zone crossing. See the DAL6036 flight status page for this flight to view local times or setup timezone preferences in your user account.

Time Position Orientation Groundspeed Altitude Reporting Facility
EDT Latitude Longitude Course Direction KTS MPH feet Rate Location/Type
08:03PM 42.2014 -83.3611 285° West 162 186 1,300  Level Cleveland Center
08:04PM 42.1667 -83.4211 232° Southwest 236 272 2,900 2,160 Climbing Cleveland Center
08:05PM 42.1253 -83.4919 232° Southwest 238 274 5,700 2,280 Climbing Cleveland Center
08:06PM 42.2916 -83.6914 285° West  Level FlightAware Approximate
08:06PM 42.1439 -83.5797 286° West 270 311 7,600  Level Cleveland Center
08:07PM 42.3236 -83.8042 294° West  Level FlightAware Approximate
08:07PM 42.1814 -83.6600 302° West 286 329 9,500  Level Cleveland Center
08:08PM 42.3506 -83.9195 285° West  Level FlightAware Approximate
08:08PM 42.2306 -83.7661 302° West 300 345 11,700  Level Cleveland Center
08:09PM 42.2717 -83.8581 301° West 330 380 12,000 120 Climbing Cleveland Center
08:10PM 42.3306 -83.9875 302° West 352 405 12,000  Level Cleveland Center
08:11PM 42.3853 -84.1086 301° West 373 429 12,000  Level Cleveland Center
08:12PM 42.4292 -84.2375 295° West 378 435 12,000 -60 Level Cleveland Center
08:13PM 42.4350 -84.3814 273° West 373 429 11,900 -480 Descending Cleveland Center
08:14PM 42.4764 -84.5136 293° West 378 435 11,100 -900 Descending Cleveland Center
08:15PM 42.5244 -84.6292 299° West 371 427 10,100 -600 Descending Cleveland Center
08:16PM 42.5686 -84.7392 299° West 366 421 10,000 -60 Descending Cleveland Center
08:17PM 42.6131 -84.8450 300° West 354 407 10,000  Level Chicago Center
08:18PM 42.6594 -84.9608 299° West 352 405 10,000 -660 Level Chicago Center
08:19PM 42.6897 -85.0558 293° West 291 335 8,700 -1,920 Descending Chicago Center
08:20PM 42.7156 -85.1753 286° West 276 318 6,100 -2,280 Descending Chicago Center
08:21PM 42.7353 -85.2731 285° West 270 311 4,100 -1,740 Descending Chicago Center
08:22PM 42.7547 -85.3689 285° West 266 306 2,600 -840 Descending Chicago Center
08:23PM 42.7767 -85.4600 288° West 261 300 2,400 -240 Descending Chicago Center